sensor_id;sensor_type;location;lat;lon;timestamp;P1;durP1;ratioP1;P2;durP2;ratioP2
76051;SDS011;64751;48.708;9.710;2023-03-21T00:01:45;2.20;;;1.85;;
76051;SDS011;64751;48.708;9.710;2023-03-21T00:04:16;3.03;;;1.88;;
76051;SDS011;64751;48.708;9.710;2023-03-21T00:06:43;2.20;;;1.70;;
76051;SDS011;64751;48.708;9.710;2023-03-21T00:09:11;3.53;;;1.80;;
76051;SDS011;64751;48.708;9.710;2023-03-21T00:11:38;2.67;;;1.80;;
76051;SDS011;64751;48.708;9.710;2023-03-21T00:14:06;2.67;;;1.90;;
76051;SDS011;64751;48.708;9.710;2023-03-21T00:16:40;2.97;;;1.90;;
76051;SDS011;64751;48.708;9.710;2023-03-21T00:19:10;2.70;;;1.85;;
76051;SDS011;64751;48.708;9.710;2023-03-21T00:21:39;2.88;;;2.05;;
76051;SDS011;64751;48.708;9.710;2023-03-21T00:24:07;2.25;;;1.60;;
76051;SDS011;64751;48.708;9.710;2023-03-21T00:26:34;2.65;;;1.70;;
76051;SDS011;64751;48.708;9.710;2023-03-21T00:29:03;2.30;;;1.60;;
76051;SDS011;64751;48.708;9.710;2023-03-21T00:31:30;2.20;;;1.60;;
76051;SDS011;64751;48.708;9.710;2023-03-21T00:34:00;2.90;;;1.75;;
76051;SDS011;64751;48.708;9.710;2023-03-21T00:36:29;2.30;;;1.80;;
76051;SDS011;64751;48.708;9.710;2023-03-21T00:38:57;2.38;;;1.77;;
76051;SDS011;64751;48.708;9.710;2023-03-21T00:41:26;1.70;;;1.30;;
76051;SDS011;64751;48.708;9.710;2023-03-21T00:43:53;1.70;;;1.50;;
76051;SDS011;64751;48.708;9.710;2023-03-21T00:46:22;2.00;;;1.45;;
76051;SDS011;64751;48.708;9.710;2023-03-21T00:48:49;2.25;;;1.65;;
76051;SDS011;64751;48.708;9.710;2023-03-21T00:51:20;2.65;;;1.60;;
76051;SDS011;64751;48.708;9.710;2023-03-21T00:53:52;2.60;;;1.58;;
76051;SDS011;64751;48.708;9.710;2023-03-21T00:56:20;2.53;;;1.75;;
76051;SDS011;64751;48.708;9.710;2023-03-21T00:58:49;2.65;;;1.88;;
76051;SDS011;64751;48.708;9.710;2023-03-21T01:01:17;2.65;;;2.00;;
76051;SDS011;64751;48.708;9.710;2023-03-21T01:03:45;2.15;;;1.40;;
76051;SDS011;64751;48.708;9.710;2023-03-21T01:06:16;2.50;;;1.60;;
76051;SDS011;64751;48.708;9.710;2023-03-21T01:08:46;2.95;;;1.63;;
76051;SDS011;64751;48.708;9.710;2023-03-21T01:11:15;1.77;;;1.23;;
76051;SDS011;64751;48.708;9.710;2023-03-21T01:13:45;2.17;;;1.45;;
76051;SDS011;64751;48.708;9.710;2023-03-21T01:16:13;1.95;;;1.70;;
76051;SDS011;64751;48.708;9.710;2023-03-21T01:18:40;1.90;;;1.42;;
76051;SDS011;64751;48.708;9.710;2023-03-21T01:21:09;2.50;;;1.80;;
76051;SDS011;64751;48.708;9.710;2023-03-21T01:23:39;2.17;;;1.65;;
76051;SDS011;64751;48.708;9.710;2023-03-21T01:26:08;1.73;;;1.40;;
76051;SDS011;64751;48.708;9.710;2023-03-21T01:28:38;2.38;;;1.38;;
76051;SDS011;64751;48.708;9.710;2023-03-21T01:31:08;1.92;;;1.50;;
76051;SDS011;64751;48.708;9.710;2023-03-21T01:33:38;1.55;;;1.40;;
76051;SDS011;64751;48.708;9.710;2023-03-21T01:36:06;4.40;;;1.55;;
76051;SDS011;64751;48.708;9.710;2023-03-21T01:38:35;2.42;;;1.80;;
76051;SDS011;64751;48.708;9.710;2023-03-21T01:41:04;1.70;;;1.25;;
76051;SDS011;64751;48.708;9.710;2023-03-21T01:43:35;2.08;;;1.27;;
76051;SDS011;64751;48.708;9.710;2023-03-21T01:49:14;1.95;;;1.35;;
76051;SDS011;64751;48.708;9.710;2023-03-21T01:51:50;2.30;;;1.65;;
76051;SDS011;64751;48.708;9.710;2023-03-21T01:54:22;1.67;;;1.50;;
76051;SDS011;64751;48.708;9.710;2023-03-21T01:56:55;1.73;;;1.15;;
76051;SDS011;64751;48.708;9.710;2023-03-21T01:59:25;1.95;;;1.42;;
76051;SDS011;64751;48.708;9.710;2023-03-21T02:02:16;2.40;;;1.30;;
76051;SDS011;64751;48.708;9.710;2023-03-21T02:05:02;1.52;;;1.20;;
76051;SDS011;64751;48.708;9.710;2023-03-21T02:07:31;2.05;;;1.30;;
76051;SDS011;64751;48.708;9.710;2023-03-21T02:10:04;1.60;;;1.40;;
76051;SDS011;64751;48.708;9.710;2023-03-21T02:12:37;1.77;;;1.35;;
76051;SDS011;64751;48.708;9.710;2023-03-21T02:15:06;1.90;;;1.40;;
76051;SDS011;64751;48.708;9.710;2023-03-21T02:17:48;1.48;;;1.30;;
76051;SDS011;64751;48.708;9.710;2023-03-21T02:20:39;1.30;;;1.02;;
76051;SDS011;64751;48.708;9.710;2023-03-21T02:23:32;1.60;;;1.15;;
76051;SDS011;64751;48.708;9.710;2023-03-21T02:26:41;1.92;;;1.50;;
76051;SDS011;64751;48.708;9.710;2023-03-21T02:29:32;1.63;;;1.08;;
76051;SDS011;64751;48.708;9.710;2023-03-21T02:32:19;1.85;;;1.40;;
76051;SDS011;64751;48.708;9.710;2023-03-21T02:35:01;1.73;;;1.33;;
76051;SDS011;64751;48.708;9.710;2023-03-21T02:37:42;2.03;;;1.30;;
76051;SDS011;64751;48.708;9.710;2023-03-21T02:40:15;1.48;;;1.20;;
76051;SDS011;64751;48.708;9.710;2023-03-21T02:42:52;2.53;;;1.40;;
76051;SDS011;64751;48.708;9.710;2023-03-21T02:45:35;1.67;;;1.38;;
76051;SDS011;64751;48.708;9.710;2023-03-21T02:48:09;2.30;;;1.40;;
76051;SDS011;64751;48.708;9.710;2023-03-21T02:50:41;2.75;;;1.50;;
76051;SDS011;64751;48.708;9.710;2023-03-21T02:53:16;1.85;;;1.25;;
76051;SDS011;64751;48.708;9.710;2023-03-21T02:55:46;1.60;;;1.20;;
76051;SDS011;64751;48.708;9.710;2023-03-21T02:58:16;1.60;;;1.23;;
76051;SDS011;64751;48.708;9.710;2023-03-21T03:00:52;2.00;;;1.38;;
76051;SDS011;64751;48.708;9.710;2023-03-21T03:03:37;2.97;;;1.33;;
76051;SDS011;64751;48.708;9.710;2023-03-21T03:06:07;1.65;;;1.30;;
76051;SDS011;64751;48.708;9.710;2023-03-21T03:11:21;1.33;;;1.10;;
76051;SDS011;64751;48.708;9.710;2023-03-21T03:13:58;2.45;;;1.60;;
76051;SDS011;64751;48.708;9.710;2023-03-21T03:16:37;1.77;;;1.40;;
76051;SDS011;64751;48.708;9.710;2023-03-21T03:19:10;3.03;;;1.52;;
76051;SDS011;64751;48.708;9.710;2023-03-21T03:21:46;1.75;;;1.40;;
76051;SDS011;64751;48.708;9.710;2023-03-21T03:24:20;2.60;;;1.52;;
76051;SDS011;64751;48.708;9.710;2023-03-21T03:26:52;2.05;;;1.20;;
76051;SDS011;64751;48.708;9.710;2023-03-21T03:29:26;1.48;;;1.20;;
76051;SDS011;64751;48.708;9.710;2023-03-21T03:31:57;2.20;;;1.50;;
76051;SDS011;64751;48.708;9.710;2023-03-21T03:34:32;2.10;;;1.35;;
76051;SDS011;64751;48.708;9.710;2023-03-21T03:37:06;1.77;;;1.38;;
76051;SDS011;64751;48.708;9.710;2023-03-21T03:39:39;2.03;;;1.50;;
76051;SDS011;64751;48.708;9.710;2023-03-21T03:42:12;2.50;;;1.50;;
76051;SDS011;64751;48.708;9.710;2023-03-21T03:44:46;1.50;;;1.20;;
76051;SDS011;64751;48.708;9.710;2023-03-21T03:47:15;2.67;;;1.55;;
76051;SDS011;64751;48.708;9.710;2023-03-21T03:49:54;1.80;;;1.30;;
76051;SDS011;64751;48.708;9.710;2023-03-21T03:52:30;2.70;;;1.30;;
76051;SDS011;64751;48.708;9.710;2023-03-21T03:55:09;1.58;;;1.20;;
76051;SDS011;64751;48.708;9.710;2023-03-21T03:57:42;1.42;;;1.20;;
76051;SDS011;64751;48.708;9.710;2023-03-21T04:00:10;1.40;;;1.10;;
76051;SDS011;64751;48.708;9.710;2023-03-21T04:02:46;1.77;;;1.13;;
76051;SDS011;64751;48.708;9.710;2023-03-21T04:05:18;2.20;;;1.40;;
76051;SDS011;64751;48.708;9.710;2023-03-21T04:07:46;1.73;;;1.35;;
76051;SDS011;64751;48.708;9.710;2023-03-21T04:10:18;1.77;;;1.30;;
76051;SDS011;64751;48.708;9.710;2023-03-21T04:12:47;1.63;;;1.20;;
76051;SDS011;64751;48.708;9.710;2023-03-21T04:15:32;2.08;;;1.20;;
76051;SDS011;64751;48.708;9.710;2023-03-21T04:18:07;1.45;;;1.25;;
76051;SDS011;64751;48.708;9.710;2023-03-21T04:20:34;1.75;;;1.17;;
76051;SDS011;64751;48.708;9.710;2023-03-21T04:23:02;2.53;;;1.40;;
76051;SDS011;64751;48.708;9.710;2023-03-21T04:25:33;3.17;;;1.30;;
76051;SDS011;64751;48.708;9.710;2023-03-21T04:28:03;1.75;;;1.20;;
76051;SDS011;64751;48.708;9.710;2023-03-21T04:30:42;1.70;;;1.00;;
76051;SDS011;64751;48.708;9.710;2023-03-21T04:33:15;2.30;;;1.30;;
76051;SDS011;64751;48.708;9.710;2023-03-21T04:35:50;2.20;;;1.10;;
76051;SDS011;64751;48.708;9.710;2023-03-21T04:38:22;1.90;;;1.52;;
76051;SDS011;64751;48.708;9.710;2023-03-21T04:40:50;1.85;;;1.30;;
76051;SDS011;64751;48.708;9.710;2023-03-21T04:43:21;2.10;;;1.33;;
76051;SDS011;64751;48.708;9.710;2023-03-21T04:45:49;1.88;;;1.20;;
76051;SDS011;64751;48.708;9.710;2023-03-21T04:48:17;1.90;;;1.25;;
76051;SDS011;64751;48.708;9.710;2023-03-21T04:50:50;1.92;;;1.65;;
76051;SDS011;64751;48.708;9.710;2023-03-21T04:53:19;1.83;;;1.23;;
76051;SDS011;64751;48.708;9.710;2023-03-21T04:55:46;1.52;;;1.33;;
76051;SDS011;64751;48.708;9.710;2023-03-21T04:58:15;1.52;;;1.13;;
76051;SDS011;64751;48.708;9.710;2023-03-21T05:00:45;1.55;;;1.20;;
76051;SDS011;64751;48.708;9.710;2023-03-21T05:03:12;2.33;;;1.45;;
76051;SDS011;64751;48.708;9.710;2023-03-21T05:05:45;1.67;;;1.30;;
76051;SDS011;64751;48.708;9.710;2023-03-21T05:08:13;1.50;;;1.05;;
76051;SDS011;64751;48.708;9.710;2023-03-21T05:10:41;2.47;;;1.58;;
76051;SDS011;64751;48.708;9.710;2023-03-21T05:13:10;1.77;;;1.33;;
76051;SDS011;64751;48.708;9.710;2023-03-21T05:15:39;1.90;;;1.35;;
76051;SDS011;64751;48.708;9.710;2023-03-21T05:18:06;1.42;;;1.15;;
76051;SDS011;64751;48.708;9.710;2023-03-21T05:20:41;1.58;;;1.10;;
76051;SDS011;64751;48.708;9.710;2023-03-21T05:23:10;1.88;;;1.20;;
76051;SDS011;64751;48.708;9.710;2023-03-21T05:25:37;2.00;;;1.55;;
76051;SDS011;64751;48.708;9.710;2023-03-21T05:28:14;1.67;;;1.27;;
76051;SDS011;64751;48.708;9.710;2023-03-21T05:30:45;1.67;;;1.30;;
76051;SDS011;64751;48.708;9.710;2023-03-21T05:33:14;1.52;;;1.10;;
76051;SDS011;64751;48.708;9.710;2023-03-21T05:35:41;1.73;;;1.50;;
76051;SDS011;64751;48.708;9.710;2023-03-21T05:38:11;2.40;;;1.50;;
76051;SDS011;64751;48.708;9.710;2023-03-21T05:40:48;2.45;;;1.38;;
76051;SDS011;64751;48.708;9.710;2023-03-21T05:43:17;2.42;;;1.30;;
76051;SDS011;64751;48.708;9.710;2023-03-21T05:45:47;2.28;;;1.20;;
76051;SDS011;64751;48.708;9.710;2023-03-21T05:48:16;2.17;;;1.30;;
76051;SDS011;64751;48.708;9.710;2023-03-21T05:51:10;1.90;;;1.50;;
76051;SDS011;64751;48.708;9.710;2023-03-21T05:53:43;1.33;;;1.20;;
76051;SDS011;64751;48.708;9.710;2023-03-21T05:56:14;1.80;;;1.10;;
76051;SDS011;64751;48.708;9.710;2023-03-21T05:59:03;2.83;;;1.40;;
76051;SDS011;64751;48.708;9.710;2023-03-21T06:01:37;1.65;;;1.30;;
76051;SDS011;64751;48.708;9.710;2023-03-21T06:04:10;2.70;;;1.40;;
76051;SDS011;64751;48.708;9.710;2023-03-21T06:06:39;1.65;;;1.20;;
76051;SDS011;64751;48.708;9.710;2023-03-21T06:09:06;2.03;;;1.58;;
76051;SDS011;64751;48.708;9.710;2023-03-21T06:11:35;1.40;;;1.10;;
76051;SDS011;64751;48.708;9.710;2023-03-21T06:14:30;1.83;;;1.20;;
76051;SDS011;64751;48.708;9.710;2023-03-21T06:17:24;1.83;;;1.20;;
76051;SDS011;64751;48.708;9.710;2023-03-21T06:19:57;1.52;;;1.13;;
76051;SDS011;64751;48.708;9.710;2023-03-21T06:22:36;2.47;;;1.60;;
76051;SDS011;64751;48.708;9.710;2023-03-21T06:25:05;1.90;;;1.30;;
76051;SDS011;64751;48.708;9.710;2023-03-21T06:27:35;2.15;;;1.10;;
76051;SDS011;64751;48.708;9.710;2023-03-21T06:30:05;2.10;;;1.23;;
76051;SDS011;64751;48.708;9.710;2023-03-21T06:32:41;2.42;;;1.42;;
76051;SDS011;64751;48.708;9.710;2023-03-21T06:35:13;1.67;;;1.15;;
76051;SDS011;64751;48.708;9.710;2023-03-21T06:37:42;2.83;;;1.17;;
76051;SDS011;64751;48.708;9.710;2023-03-21T06:40:11;1.95;;;1.27;;
76051;SDS011;64751;48.708;9.710;2023-03-21T06:42:39;2.75;;;1.30;;
76051;SDS011;64751;48.708;9.710;2023-03-21T06:45:09;2.60;;;1.45;;
76051;SDS011;64751;48.708;9.710;2023-03-21T06:47:37;1.85;;;1.33;;
76051;SDS011;64751;48.708;9.710;2023-03-21T06:50:12;1.83;;;1.13;;
76051;SDS011;64751;48.708;9.710;2023-03-21T06:52:42;2.00;;;1.50;;
76051;SDS011;64751;48.708;9.710;2023-03-21T06:55:12;1.50;;;1.27;;
76051;SDS011;64751;48.708;9.710;2023-03-21T06:57:40;2.22;;;1.58;;
76051;SDS011;64751;48.708;9.710;2023-03-21T07:00:09;1.80;;;1.30;;
76051;SDS011;64751;48.708;9.710;2023-03-21T07:02:42;1.80;;;1.30;;
76051;SDS011;64751;48.708;9.710;2023-03-21T07:05:17;1.83;;;1.20;;
76051;SDS011;64751;48.708;9.710;2023-03-21T07:07:44;1.73;;;1.30;;
76051;SDS011;64751;48.708;9.710;2023-03-21T07:10:12;1.58;;;1.10;;
76051;SDS011;64751;48.708;9.710;2023-03-21T07:12:45;2.28;;;1.30;;
76051;SDS011;64751;48.708;9.710;2023-03-21T07:15:20;2.45;;;1.70;;
76051;SDS011;64751;48.708;9.710;2023-03-21T07:17:48;3.50;;;1.80;;
76051;SDS011;64751;48.708;9.710;2023-03-21T07:20:17;2.70;;;1.70;;
76051;SDS011;64751;48.708;9.710;2023-03-21T07:22:45;2.67;;;1.70;;
76051;SDS011;64751;48.708;9.710;2023-03-21T07:25:13;2.10;;;1.70;;
76051;SDS011;64751;48.708;9.710;2023-03-21T07:27:42;2.85;;;1.77;;
76051;SDS011;64751;48.708;9.710;2023-03-21T07:30:10;2.55;;;1.98;;
76051;SDS011;64751;48.708;9.710;2023-03-21T07:32:38;3.10;;;1.92;;
76051;SDS011;64751;48.708;9.710;2023-03-21T07:35:07;2.88;;;2.00;;
76051;SDS011;64751;48.708;9.710;2023-03-21T07:37:38;3.80;;;2.00;;
76051;SDS011;64751;48.708;9.710;2023-03-21T07:40:07;2.50;;;1.90;;
76051;SDS011;64751;48.708;9.710;2023-03-21T07:42:38;2.60;;;1.80;;
76051;SDS011;64751;48.708;9.710;2023-03-21T07:45:09;2.38;;;1.80;;
76051;SDS011;64751;48.708;9.710;2023-03-21T07:47:40;2.55;;;1.85;;
76051;SDS011;64751;48.708;9.710;2023-03-21T07:50:08;2.03;;;1.38;;
76051;SDS011;64751;48.708;9.710;2023-03-21T07:52:45;2.22;;;1.80;;
76051;SDS011;64751;48.708;9.710;2023-03-21T07:55:12;2.85;;;1.77;;
76051;SDS011;64751;48.708;9.710;2023-03-21T07:57:42;2.42;;;1.92;;
76051;SDS011;64751;48.708;9.710;2023-03-21T08:00:10;3.40;;;2.00;;
76051;SDS011;64751;48.708;9.710;2023-03-21T08:02:41;2.40;;;1.73;;
76051;SDS011;64751;48.708;9.710;2023-03-21T08:05:09;2.65;;;2.10;;
76051;SDS011;64751;48.708;9.710;2023-03-21T08:07:37;2.50;;;1.90;;
76051;SDS011;64751;48.708;9.710;2023-03-21T08:10:07;2.35;;;1.98;;
76051;SDS011;64751;48.708;9.710;2023-03-21T08:12:36;3.45;;;1.80;;
76051;SDS011;64751;48.708;9.710;2023-03-21T08:15:04;2.45;;;1.92;;
76051;SDS011;64751;48.708;9.710;2023-03-21T08:17:32;4.05;;;1.70;;
76051;SDS011;64751;48.708;9.710;2023-03-21T08:20:01;2.50;;;1.63;;
76051;SDS011;64751;48.708;9.710;2023-03-21T08:22:32;2.72;;;1.70;;
76051;SDS011;64751;48.708;9.710;2023-03-21T08:24:59;2.33;;;1.67;;
76051;SDS011;64751;48.708;9.710;2023-03-21T08:27:31;2.13;;;1.75;;
76051;SDS011;64751;48.708;9.710;2023-03-21T08:29:58;2.80;;;1.83;;
76051;SDS011;64751;48.708;9.710;2023-03-21T08:32:27;2.35;;;1.60;;
76051;SDS011;64751;48.708;9.710;2023-03-21T08:34:56;2.08;;;1.63;;
76051;SDS011;64751;48.708;9.710;2023-03-21T08:37:25;2.17;;;1.40;;
76051;SDS011;64751;48.708;9.710;2023-03-21T08:39:53;2.00;;;1.40;;
76051;SDS011;64751;48.708;9.710;2023-03-21T08:42:21;1.60;;;1.30;;
76051;SDS011;64751;48.708;9.710;2023-03-21T08:44:49;2.15;;;1.50;;
76051;SDS011;64751;48.708;9.710;2023-03-21T08:47:17;1.52;;;0.85;;
76051;SDS011;64751;48.708;9.710;2023-03-21T08:49:44;1.67;;;0.82;;
76051;SDS011;64751;48.708;9.710;2023-03-21T08:52:12;0.80;;;0.80;;
76051;SDS011;64751;48.708;9.710;2023-03-21T08:54:39;1.40;;;1.08;;
76051;SDS011;64751;48.708;9.710;2023-03-21T08:57:09;1.63;;;1.08;;
76051;SDS011;64751;48.708;9.710;2023-03-21T08:59:37;0.90;;;0.70;;
76051;SDS011;64751;48.708;9.710;2023-03-21T09:02:06;1.48;;;0.90;;
76051;SDS011;64751;48.708;9.710;2023-03-21T09:04:33;1.30;;;1.00;;
76051;SDS011;64751;48.708;9.710;2023-03-21T09:07:01;1.30;;;1.00;;
76051;SDS011;64751;48.708;9.710;2023-03-21T09:09:30;1.45;;;1.10;;
76051;SDS011;64751;48.708;9.710;2023-03-21T09:11:58;1.70;;;1.10;;
76051;SDS011;64751;48.708;9.710;2023-03-21T09:14:25;1.75;;;1.00;;
76051;SDS011;64751;48.708;9.710;2023-03-21T09:16:53;1.63;;;1.10;;
76051;SDS011;64751;48.708;9.710;2023-03-21T09:19:22;2.08;;;1.50;;
76051;SDS011;64751;48.708;9.710;2023-03-21T09:21:50;2.00;;;1.42;;
76051;SDS011;64751;48.708;9.710;2023-03-21T09:24:18;2.13;;;1.50;;
76051;SDS011;64751;48.708;9.710;2023-03-21T09:26:46;2.22;;;1.30;;
76051;SDS011;64751;48.708;9.710;2023-03-21T09:29:16;1.77;;;1.30;;
76051;SDS011;64751;48.708;9.710;2023-03-21T09:31:45;1.90;;;1.25;;
76051;SDS011;64751;48.708;9.710;2023-03-21T09:34:13;2.35;;;1.30;;
76051;SDS011;64751;48.708;9.710;2023-03-21T09:36:43;1.60;;;1.23;;
76051;SDS011;64751;48.708;9.710;2023-03-21T09:39:13;1.75;;;1.25;;
76051;SDS011;64751;48.708;9.710;2023-03-21T09:41:54;4.88;;;2.03;;
76051;SDS011;64751;48.708;9.710;2023-03-21T09:44:33;2.97;;;1.52;;
76051;SDS011;64751;48.708;9.710;2023-03-21T09:47:12;1.60;;;1.30;;
76051;SDS011;64751;48.708;9.710;2023-03-21T09:49:46;1.75;;;1.50;;
76051;SDS011;64751;48.708;9.710;2023-03-21T09:52:18;1.77;;;1.20;;
76051;SDS011;64751;48.708;9.710;2023-03-21T09:54:48;1.85;;;1.20;;
76051;SDS011;64751;48.708;9.710;2023-03-21T09:57:21;1.90;;;1.30;;
76051;SDS011;64751;48.708;9.710;2023-03-21T09:59:57;1.63;;;1.27;;
76051;SDS011;64751;48.708;9.710;2023-03-21T10:02:38;1.85;;;1.40;;
76051;SDS011;64751;48.708;9.710;2023-03-21T10:05:12;2.60;;;1.60;;
76051;SDS011;64751;48.708;9.710;2023-03-21T10:07:45;2.15;;;1.73;;
76051;SDS011;64751;48.708;9.710;2023-03-21T10:10:20;1.95;;;1.30;;
76051;SDS011;64751;48.708;9.710;2023-03-21T10:12:51;1.75;;;1.40;;
76051;SDS011;64751;48.708;9.710;2023-03-21T10:15:21;1.90;;;1.50;;
76051;SDS011;64751;48.708;9.710;2023-03-21T10:17:52;2.83;;;1.40;;
76051;SDS011;64751;48.708;9.710;2023-03-21T10:20:24;2.00;;;1.40;;
76051;SDS011;64751;48.708;9.710;2023-03-21T10:22:55;1.75;;;1.50;;
76051;SDS011;64751;48.708;9.710;2023-03-21T10:25:25;2.08;;;1.40;;
76051;SDS011;64751;48.708;9.710;2023-03-21T10:27:57;1.77;;;1.30;;
76051;SDS011;64751;48.708;9.710;2023-03-21T10:30:35;3.30;;;1.23;;
76051;SDS011;64751;48.708;9.710;2023-03-21T10:33:06;2.05;;;1.40;;
76051;SDS011;64751;48.708;9.710;2023-03-21T10:35:37;2.50;;;1.58;;
76051;SDS011;64751;48.708;9.710;2023-03-21T10:38:11;1.67;;;1.30;;
76051;SDS011;64751;48.708;9.710;2023-03-21T10:40:42;2.45;;;1.35;;
76051;SDS011;64751;48.708;9.710;2023-03-21T10:43:18;1.95;;;1.33;;
76051;SDS011;64751;48.708;9.710;2023-03-21T10:45:56;2.22;;;1.60;;
76051;SDS011;64751;48.708;9.710;2023-03-21T10:48:23;1.67;;;1.48;;
76051;SDS011;64751;48.708;9.710;2023-03-21T10:50:52;2.08;;;1.50;;
76051;SDS011;64751;48.708;9.710;2023-03-21T10:53:28;1.77;;;1.30;;
76051;SDS011;64751;48.708;9.710;2023-03-21T10:56:01;2.70;;;1.40;;
76051;SDS011;64751;48.708;9.710;2023-03-21T10:58:34;2.00;;;1.50;;
76051;SDS011;64751;48.708;9.710;2023-03-21T11:01:05;1.70;;;1.50;;
76051;SDS011;64751;48.708;9.710;2023-03-21T11:03:38;2.00;;;1.30;;
76051;SDS011;64751;48.708;9.710;2023-03-21T11:06:11;2.10;;;1.40;;
76051;SDS011;64751;48.708;9.710;2023-03-21T11:08:44;2.35;;;1.40;;
76051;SDS011;64751;48.708;9.710;2023-03-21T11:11:18;2.05;;;1.13;;
76051;SDS011;64751;48.708;9.710;2023-03-21T11:13:54;1.85;;;1.40;;
76051;SDS011;64751;48.708;9.710;2023-03-21T11:16:25;1.95;;;1.27;;
76051;SDS011;64751;48.708;9.710;2023-03-21T11:18:59;2.00;;;1.65;;
76051;SDS011;64751;48.708;9.710;2023-03-21T11:21:33;2.17;;;1.30;;
76051;SDS011;64751;48.708;9.710;2023-03-21T11:24:04;1.95;;;1.50;;
76051;SDS011;64751;48.708;9.710;2023-03-21T11:26:37;1.55;;;1.23;;
76051;SDS011;64751;48.708;9.710;2023-03-21T11:29:11;1.90;;;1.50;;
76051;SDS011;64751;48.708;9.710;2023-03-21T11:31:49;1.60;;;1.20;;
76051;SDS011;64751;48.708;9.710;2023-03-21T11:34:25;1.75;;;1.23;;
76051;SDS011;64751;48.708;9.710;2023-03-21T11:36:58;1.63;;;1.20;;
76051;SDS011;64751;48.708;9.710;2023-03-21T11:39:31;2.00;;;1.27;;
76051;SDS011;64751;48.708;9.710;2023-03-21T11:42:00;2.10;;;1.40;;
76051;SDS011;64751;48.708;9.710;2023-03-21T11:44:29;1.92;;;1.30;;
76051;SDS011;64751;48.708;9.710;2023-03-21T11:46:58;2.08;;;1.27;;
76051;SDS011;64751;48.708;9.710;2023-03-21T11:49:26;1.55;;;1.05;;
76051;SDS011;64751;48.708;9.710;2023-03-21T11:51:57;2.05;;;1.23;;
76051;SDS011;64751;48.708;9.710;2023-03-21T11:54:47;1.65;;;1.35;;
76051;SDS011;64751;48.708;9.710;2023-03-21T11:57:29;1.63;;;1.15;;
76051;SDS011;64751;48.708;9.710;2023-03-21T12:00:06;1.85;;;1.20;;
76051;SDS011;64751;48.708;9.710;2023-03-21T12:02:57;1.60;;;1.15;;
76051;SDS011;64751;48.708;9.710;2023-03-21T12:05:35;1.52;;;1.20;;
76051;SDS011;64751;48.708;9.710;2023-03-21T12:08:06;1.33;;;0.80;;
76051;SDS011;64751;48.708;9.710;2023-03-21T12:10:47;1.83;;;1.30;;
76051;SDS011;64751;48.708;9.710;2023-03-21T12:13:27;1.63;;;0.95;;
76051;SDS011;64751;48.708;9.710;2023-03-21T12:16:06;2.15;;;1.30;;
76051;SDS011;64751;48.708;9.710;2023-03-21T12:18:56;1.05;;;0.93;;
76051;SDS011;64751;48.708;9.710;2023-03-21T12:21:37;1.63;;;1.15;;
76051;SDS011;64751;48.708;9.710;2023-03-21T12:24:11;1.63;;;1.20;;
76051;SDS011;64751;48.708;9.710;2023-03-21T12:26:46;1.23;;;1.00;;
76051;SDS011;64751;48.708;9.710;2023-03-21T12:29:25;1.95;;;1.20;;
76051;SDS011;64751;48.708;9.710;2023-03-21T12:32:08;1.80;;;1.13;;
76051;SDS011;64751;48.708;9.710;2023-03-21T12:37:44;2.03;;;1.30;;
76051;SDS011;64751;48.708;9.710;2023-03-21T12:40:21;1.48;;;1.05;;
76051;SDS011;64751;48.708;9.710;2023-03-21T12:43:03;1.50;;;1.13;;
76051;SDS011;64751;48.708;9.710;2023-03-21T12:45:44;1.58;;;1.15;;
76051;SDS011;64751;48.708;9.710;2023-03-21T12:48:16;2.17;;;1.05;;
76051;SDS011;64751;48.708;9.710;2023-03-21T12:50:48;1.55;;;1.20;;
76051;SDS011;64751;48.708;9.710;2023-03-21T12:53:25;2.05;;;1.45;;
76051;SDS011;64751;48.708;9.710;2023-03-21T12:56:04;1.52;;;1.38;;
76051;SDS011;64751;48.708;9.710;2023-03-21T12:58:38;1.30;;;1.05;;
76051;SDS011;64751;48.708;9.710;2023-03-21T13:01:12;2.42;;;1.27;;
76051;SDS011;64751;48.708;9.710;2023-03-21T13:03:43;2.38;;;1.30;;
76051;SDS011;64751;48.708;9.710;2023-03-21T13:06:16;2.22;;;1.20;;
76051;SDS011;64751;48.708;9.710;2023-03-21T13:08:47;1.52;;;1.10;;
76051;SDS011;64751;48.708;9.710;2023-03-21T13:11:19;1.48;;;1.00;;
76051;SDS011;64751;48.708;9.710;2023-03-21T13:13:51;1.42;;;1.08;;
76051;SDS011;64751;48.708;9.710;2023-03-21T13:16:25;2.30;;;1.20;;
76051;SDS011;64751;48.708;9.710;2023-03-21T13:18:58;1.65;;;1.00;;
76051;SDS011;64751;48.708;9.710;2023-03-21T13:21:42;1.80;;;1.25;;
76051;SDS011;64751;48.708;9.710;2023-03-21T13:24:23;1.45;;;1.10;;
76051;SDS011;64751;48.708;9.710;2023-03-21T13:26:56;1.33;;;0.93;;
76051;SDS011;64751;48.708;9.710;2023-03-21T13:29:30;2.38;;;1.00;;
76051;SDS011;64751;48.708;9.710;2023-03-21T13:32:05;1.30;;;1.00;;
76051;SDS011;64751;48.708;9.710;2023-03-21T13:34:37;1.08;;;0.95;;
76051;SDS011;64751;48.708;9.710;2023-03-21T13:37:08;1.65;;;1.00;;
76051;SDS011;64751;48.708;9.710;2023-03-21T13:39:43;1.15;;;1.00;;
76051;SDS011;64751;48.708;9.710;2023-03-21T13:42:16;2.20;;;1.40;;
76051;SDS011;64751;48.708;9.710;2023-03-21T13:44:51;1.85;;;0.85;;
76051;SDS011;64751;48.708;9.710;2023-03-21T13:47:22;1.73;;;1.08;;
76051;SDS011;64751;48.708;9.710;2023-03-21T13:55:45;1.30;;;0.80;;
76051;SDS011;64751;48.708;9.710;2023-03-21T13:58:21;1.23;;;0.80;;
76051;SDS011;64751;48.708;9.710;2023-03-21T14:01:04;1.05;;;0.85;;
76051;SDS011;64751;48.708;9.710;2023-03-21T14:03:41;1.20;;;0.85;;
76051;SDS011;64751;48.708;9.710;2023-03-21T14:06:11;0.75;;;0.60;;
76051;SDS011;64751;48.708;9.710;2023-03-21T14:08:42;1.05;;;0.85;;
76051;SDS011;64751;48.708;9.710;2023-03-21T14:11:12;0.70;;;0.55;;
76051;SDS011;64751;48.708;9.710;2023-03-21T14:16:13;0.70;;;0.57;;
76051;SDS011;64751;48.708;9.710;2023-03-21T14:18:43;0.70;;;0.60;;
76051;SDS011;64751;48.708;9.710;2023-03-21T14:21:18;1.25;;;0.60;;
76051;SDS011;64751;48.708;9.710;2023-03-21T14:23:54;0.77;;;0.75;;
76051;SDS011;64751;48.708;9.710;2023-03-21T14:26:23;1.13;;;0.90;;
76051;SDS011;64751;48.708;9.710;2023-03-21T14:28:51;0.95;;;0.82;;
76051;SDS011;64751;48.708;9.710;2023-03-21T14:31:20;0.90;;;0.60;;
76051;SDS011;64751;48.708;9.710;2023-03-21T14:33:49;1.02;;;0.75;;
76051;SDS011;64751;48.708;9.710;2023-03-21T14:36:19;1.33;;;0.85;;
76051;SDS011;64751;48.708;9.710;2023-03-21T14:38:54;0.80;;;0.70;;
76051;SDS011;64751;48.708;9.710;2023-03-21T14:41:25;1.25;;;0.70;;
76051;SDS011;64751;48.708;9.710;2023-03-21T14:44:10;0.82;;;0.70;;
76051;SDS011;64751;48.708;9.710;2023-03-21T14:46:42;1.10;;;0.77;;
76051;SDS011;64751;48.708;9.710;2023-03-21T14:49:11;0.93;;;0.70;;
76051;SDS011;64751;48.708;9.710;2023-03-21T14:51:41;1.00;;;0.88;;
76051;SDS011;64751;48.708;9.710;2023-03-21T14:54:12;1.20;;;0.90;;
76051;SDS011;64751;48.708;9.710;2023-03-21T14:56:47;1.02;;;0.70;;
76051;SDS011;64751;48.708;9.710;2023-03-21T14:59:16;1.80;;;1.10;;
76051;SDS011;64751;48.708;9.710;2023-03-21T15:01:48;1.73;;;1.00;;
76051;SDS011;64751;48.708;9.710;2023-03-21T15:04:18;1.60;;;1.10;;
76051;SDS011;64751;48.708;9.710;2023-03-21T15:06:50;1.13;;;0.90;;
76051;SDS011;64751;48.708;9.710;2023-03-21T15:09:20;1.15;;;0.75;;
76051;SDS011;64751;48.708;9.710;2023-03-21T15:11:50;1.65;;;0.90;;
76051;SDS011;64751;48.708;9.710;2023-03-21T15:14:21;1.27;;;0.90;;
76051;SDS011;64751;48.708;9.710;2023-03-21T15:16:53;1.15;;;0.90;;
76051;SDS011;64751;48.708;9.710;2023-03-21T15:19:23;1.25;;;0.95;;
76051;SDS011;64751;48.708;9.710;2023-03-21T15:21:55;1.73;;;0.80;;
76051;SDS011;64751;48.708;9.710;2023-03-21T15:24:28;1.30;;;0.93;;
76051;SDS011;64751;48.708;9.710;2023-03-21T15:26:59;1.05;;;0.88;;
76051;SDS011;64751;48.708;9.710;2023-03-21T15:29:31;0.93;;;0.82;;
76051;SDS011;64751;48.708;9.710;2023-03-21T15:32:06;1.52;;;1.00;;
76051;SDS011;64751;48.708;9.710;2023-03-21T15:34:40;1.52;;;0.90;;
76051;SDS011;64751;48.708;9.710;2023-03-21T15:37:13;1.42;;;0.95;;